| time (UTC) | temp C | wind direction | speed KPH | gust KPH | rain 1hr cm | rain 24hr cm | rain mn cm | humidity % | barometer mb |
| 20260504141232 | 18 | 5 | 0.0 | 0.0 | 0.00 | 0.33 | 0.00 | 85 | 1014.2 |
| 20260504140721 | 18 | 5 | 0.0 | 0.0 | 0.00 | 0.33 | 0.00 | 85 | 1014.3 |
| 20260504140702 | 18 | 5 | 0.0 | 0.0 | 0.00 | 0.33 | 0.00 | 84 | 1014.3 |
| 20260504130447 | 18 | 5 | 0.0 | 0.0 | 0.00 | 0.33 | 0.33 | 82 | 1014.1 |
| 20260504120204 | 18 | 5 | 0.0 | 0.0 | 0.00 | 0.33 | 0.33 | 81 | 1014.1 |
| 20260504110540 | 19 | 10 | 0.0 | 1.6 | 0.00 | 0.33 | 0.33 | 79 | 1013.5 |
| 20260504100339 | 20 | 326 | 0.0 | 1.6 | 0.00 | 0.33 | 0.33 | 78 | 1013.0 |
| 20260504081538 | 20 | 303 | 0.0 | 1.6 | 0.00 | 0.33 | 0.33 | 79 | 1012.8 |
| 20260504081041 | 20 | 303 | 0.0 | 1.6 | 0.00 | 0.33 | 0.33 | 80 | 1012.7 |
| 20260504080537 | 20 | 303 | 0.0 | 1.6 | 0.00 | 0.33 | 0.33 | 80 | 1012.6 |
| 20260504080247 | 20 | 303 | 0.0 | 1.6 | 0.00 | 0.33 | 0.33 | 80 | 1012.8 |
| 20260504070357 | 20 | 327 | 0.0 | 0.0 | 0.00 | 0.33 | 0.33 | 82 | 1012.4 |
| 20260504060211 | 20 | 317 | 0.0 | 0.0 | 0.00 | 0.33 | 0.33 | 81 | 1012.6 |
| 20260504050534 | 20 | 5 | 0.0 | 11.3 | 0.00 | 0.33 | 0.33 | 85 | 1012.5 |
| 20260504050014 | 19 | 5 | 0.0 | 11.3 | 0.00 | 0.33 | 0.33 | 86 | 1012.6 |
| 20260504045514 | 19 | 9 | 0.0 | 1.6 | 0.00 | 0.33 | 0.33 | 86 | 1012.6 |
| 20260504045010 | 19 | 9 | 0.0 | 1.6 | 0.00 | 0.33 | 0.33 | 87 | 1012.5 |
| 20260504044458 | 19 | 9 | 0.0 | 1.6 | 0.00 | 0.33 | 0.33 | 87 | 1012.6 |
| 20260504043948 | 19 | 9 | 0.0 | 3.2 | 0.00 | 0.33 | 0.33 | 88 | 1012.6 |
| 20260504043439 | 19 | 10 | 0.0 | 3.2 | 0.00 | 0.33 | 0.33 | 88 | 1012.6 |
| 20260504042935 | 19 | 9 | 0.0 | 3.2 | 0.00 | 0.33 | 0.33 | 89 | 1012.6 |
| 20260504042433 | 19 | 10 | 0.0 | 8.0 | 0.00 | 0.33 | 0.33 | 89 | 1012.6 |
| 20260504042347 | 19 | 9 | 0.0 | 8.0 | 0.00 | 0.33 | 0.33 | 90 | 1012.6 |
| 20260504041354 | 19 | 5 | 0.0 | 1.6 | 0.00 | 0.33 | 0.33 | 90 | 1012.6 |
| 20260504040844 | 19 | 5 | 0.0 | 6.4 | 0.00 | 0.33 | 0.33 | 91 | 1012.7 |
| 20260504040658 | 19 | 5 | 0.0 | 6.4 | 0.00 | 0.33 | 0.33 | 91 | 1012.8 |
| 20260504040554 | 19 | 5 | 0.0 | 1.6 | 0.00 | 0.33 | 0.33 | 91 | 1012.9 |
| 20260504035323 | 19 | 5 | 0.0 | 3.2 | 0.00 | 0.33 | 0.33 | 91 | 1013.0 |
| 20260504035030 | 18 | 5 | 0.0 | 3.2 | 0.00 | 0.33 | 0.33 | 91 | 1013.1 |
| 20260504034530 | 18 | 223 | 0.0 | 1.6 | 0.00 | 0.33 | 0.33 | 91 | 1013.0 |
| 20260504033756 | 18 | 223 | 0.0 | 1.6 | 0.00 | 0.33 | 0.33 | 91 | 1013.2 |
| 20260504033253 | 18 | 223 | 0.0 | 1.6 | 0.03 | 0.33 | 0.33 | 91 | 1013.2 |
| 20260504032745 | 18 | 229 | 0.0 | 1.6 | 0.05 | 0.33 | 0.33 | 91 | 1013.1 |
| 20260504032234 | 18 | 229 | 0.0 | 3.2 | 0.05 | 0.33 | 0.33 | 91 | 1013.2 |
| 20260504031728 | 18 | 332 | 0.0 | 3.2 | 0.05 | 0.33 | 0.33 | 91 | 1013.5 |
| 20260504031444 | 18 | 331 | 0.0 | 1.6 | 0.10 | 0.33 | 0.33 | 91 | 1013.4 |
| 20260504030708 | 18 | 331 | 0.0 | 3.2 | 0.13 | 0.33 | 0.33 | 91 | 1013.5 |
| 20260504030641 | 17 | 330 | 0.0 | 3.2 | 0.15 | 0.33 | 0.33 | 91 | 1013.6 |
| 20260504025657 | 18 | 330 | 0.0 | 1.6 | 0.15 | 0.33 | 0.33 | 91 | 1013.8 |
| 20260504025146 | 18 | 330 | 0.0 | 1.6 | 0.20 | 0.33 | 0.33 | 91 | 1014.0 |
| 20260504024646 | 18 | 330 | 0.0 | 1.6 | 0.23 | 0.33 | 0.33 | 91 | 1014.0 |
| 20260504024401 | 18 | 330 | 0.0 | 1.6 | 0.23 | 0.33 | 0.33 | 90 | 1014.1 |
| 20260504023638 | 18 | 329 | 0.0 | 4.8 | 0.23 | 0.33 | 0.33 | 90 | 1014.3 |
| 20260504023140 | 18 | 329 | 0.0 | 4.8 | 0.20 | 0.30 | 0.33 | 90 | 1014.5 |
| 20260504023122 | 18 | 344 | 0.0 | 3.2 | 0.20 | 0.30 | 0.30 | 90 | 1014.4 |
| 20260504022402 | 18 | 344 | 0.0 | 3.2 | 0.23 | 0.28 | 0.28 | 90 | 1014.6 |
| 20260504021629 | 18 | 330 | 0.0 | 1.6 | 0.20 | 0.28 | 0.28 | 90 | 1014.8 |
| 20260504021136 | 18 | 330 | 0.0 | 1.6 | 0.18 | 0.23 | 0.25 | 90 | 1014.9 |
| 20260504020626 | 18 | 329 | 0.0 | 0.0 | 0.18 | 0.23 | 0.23 | 91 | 1015.0 |
| 20260504020122 | 18 | 329 | 0.0 | 0.0 | 0.15 | 0.20 | 0.20 | 91 | 1015.1 |
| 20260504015618 | 18 | 329 | 0.0 | 0.0 | 0.15 | 0.18 | 0.18 | 90 | 1015.1 |
| 20260504015334 | 18 | 329 | 0.0 | 0.0 | 0.10 | 0.13 | 0.15 | 91 | 1015.2 |
| 20260504014557 | 18 | 329 | 0.0 | 0.0 | 0.10 | 0.13 | 0.13 | 91 | 1015.2 |
| 20260504014042 | 18 | 329 | 0.0 | 0.0 | 0.10 | 0.10 | 0.10 | 91 | 1015.3 |
| 20260504013535 | 18 | 329 | 0.0 | 0.0 | 0.08 | 0.10 | 0.10 | 91 | 1015.3 |
| 20260504013032 | 19 | 329 | 0.0 | 0.0 | 0.08 | 0.10 | 0.10 | 91 | 1015.4 |
| 20260504012528 | 19 | 329 | 0.0 | 0.0 | 0.05 | 0.08 | 0.10 | 91 | 1015.5 |
| 20260504012012 | 19 | 329 | 0.0 | 0.0 | 0.05 | 0.08 | 0.08 | 92 | 1015.6 |
| 20260504011511 | 19 | 329 | 0.0 | 0.0 | 0.05 | 0.05 | 0.05 | 92 | 1015.7 |
| 20260504010954 | 19 | 329 | 0.0 | 0.0 | 0.03 | 0.05 | 0.05 | 92 | 1015.9 |
| 20260504010449 | 19 | 329 | 0.0 | 0.0 | 0.03 | 0.05 | 0.05 | 92 | 1015.9 |
| 20260504005950 | 18 | 329 | 0.0 | 0.0 | 0.00 | 0.03 | 0.05 | 92 | 1015.9 |
| 20260504005445 | 18 | 329 | 0.0 | 0.0 | 0.00 | 0.03 | 0.03 | 92 | 1015.9 |
| 20260504004934 | 18 | 329 | 0.0 | 0.0 | 0.00 | 0.03 | 0.03 | 92 | 1015.8 |
| 20260504004431 | 18 | 329 | 0.0 | 0.0 | 0.00 | 0.03 | 0.03 | 93 | 1015.7 |
| 20260504004134 | 18 | 329 | 0.0 | 0.0 | 0.00 | 0.03 | 0.03 | 92 | 1015.6 |
| 20260504003634 | 18 | 329 | 0.0 | 0.0 | 0.00 | 0.03 | 0.03 | 93 | 1015.6 |
| 20260504002905 | 18 | 329 | 0.0 | 0.0 | 0.00 | 0.03 | 0.03 | 93 | 1015.6 |
| 20260504002601 | 18 | 329 | 0.0 | 0.0 | 0.03 | 0.03 | 0.03 | 93 | 1015.4 |
| 20260504002446 | 18 | 329 | 0.0 | 0.0 | 0.03 | 0.03 | 0.03 | 93 | 1015.4 |
| 20260504001339 | 17 | 329 | 0.0 | 0.0 | 0.03 | 0.03 | 0.03 | 93 | 1015.5 |
| 20260504000836 | 17 | 329 | 0.0 | 0.0 | 0.03 | 0.03 | 0.03 | 93 | 1015.5 |
| 20260504000324 | 17 | 329 | 0.0 | 0.0 | 0.03 | 0.03 | 0.03 | 93 | 1015.4 |
| 20260503235802 | 17 | 329 | 0.0 | 0.0 | 0.03 | 0.03 | 0.03 | 93 | 1015.4 |
| 20260503235258 | 17 | 329 | 0.0 | 0.0 | 0.03 | 0.03 | 0.03 | 93 | 1015.4 |
| 20260503234745 | 17 | 329 | 0.0 | 0.0 | 0.03 | 0.03 | 0.03 | 93 | 1015.4 |
| 20260503234504 | 17 | 329 | 0.0 | 0.0 | 0.03 | 0.03 | 0.03 | 93 | 1015.5 |
| 20260503233738 | 17 | 329 | 0.0 | 0.0 | 0.03 | 0.03 | 0.03 | 93 | 1015.7 |
| 20260503233450 | 17 | 329 | 0.0 | 0.0 | 0.00 | 0.00 | 0.00 | 93 | 1015.7 |
| 20260503232716 | 17 | 329 | 0.0 | 0.0 | 0.00 | 0.00 | 0.00 | 93 | 1015.9 |
| 20260503232214 | 17 | 329 | 0.0 | 0.0 | 0.00 | 0.00 | 0.00 | 93 | 1016.0 |
| 20260503231713 | 17 | 329 | 0.0 | 0.0 | 0.00 | 0.00 | 0.00 | 93 | 1016.0 |
| 20260503231146 | 17 | 329 | 0.0 | 0.0 | 0.00 | 0.00 | 0.00 | 94 | 1016.0 |
| 20260503230638 | 17 | 329 | 0.0 | 0.0 | 0.00 | 0.00 | 0.00 | 93 | 1016.0 |
| 20260503230339 | 17 | 329 | 0.0 | 0.0 | 0.00 | 0.00 | 0.00 | 93 | 1015.8 |
| 20260503225557 | 17 | 329 | 0.0 | 0.0 | 0.00 | 0.00 | 0.00 | 94 | 1015.6 |
| 20260503225045 | 17 | 329 | 0.0 | 0.0 | 0.00 | 0.00 | 0.00 | 94 | 1015.6 |
| 20260503224754 | 17 | 329 | 0.0 | 0.0 | 0.00 | 0.00 | 0.00 | 94 | 1015.5 |
| 20260503224026 | 17 | 329 | 0.0 | 0.0 | 0.00 | 0.00 | 0.00 | 94 | 1015.3 |
| 20260503223746 | 17 | 329 | 0.0 | 0.0 | 0.00 | 0.00 | 0.00 | 94 | 1015.3 |
| 20260503222958 | 17 | 329 | 0.0 | 0.0 | 0.00 | 0.00 | 0.00 | 94 | 1015.2 |
| 20260503222445 | 17 | 329 | 0.0 | 0.0 | 0.00 | 0.00 | 0.00 | 93 | 1015.1 |
| 20260503221936 | 17 | 329 | 0.0 | 0.0 | 0.00 | 0.00 | 0.00 | 93 | 1015.0 |
| 20260503221643 | 17 | 329 | 0.0 | 0.0 | 0.00 | 0.00 | 0.00 | 93 | 1014.9 |
| 20260503220924 | 17 | 329 | 0.0 | 0.0 | 0.00 | 0.00 | 0.00 | 93 | 1014.9 |
| 20260503220423 | 17 | 329 | 0.0 | 0.0 | 0.00 | 0.00 | 0.00 | 93 | 1014.9 |
| 20260503215915 | 17 | 329 | 0.0 | 0.0 | 0.00 | 0.00 | 0.00 | 94 | 1015.0 |
| 20260503215359 | 16 | 329 | 0.0 | 0.0 | 0.00 | 0.00 | 0.00 | 93 | 1014.8 |
| 20260503214854 | 16 | 329 | 0.0 | 0.0 | 0.00 | 0.00 | 0.00 | 93 | 1014.8 |
| 20260503214341 | 16 | 329 | 0.0 | 0.0 | 0.00 | 0.00 | 0.00 | 93 | 1014.8 |
| 20260503213838 | 16 | 329 | 0.0 | 0.0 | 0.00 | 0.00 | 0.00 | 93 | 1014.6 |
| 20260503213604 | 16 | 329 | 0.0 | 0.0 | 0.00 | 0.00 | 0.00 | 93 | 1014.5 |
| 20260503212837 | 16 | 329 | 0.0 | 0.0 | 0.00 | 0.00 | 0.00 | 93 | 1014.4 |
| 20260503212321 | 16 | 329 | 0.0 | 0.0 | 0.00 | 0.00 | 0.00 | 93 | 1014.5 |
| 20260503211758 | 16 | 329 | 0.0 | 0.0 | 0.00 | 0.00 | 0.00 | 93 | 1014.6 |
| 20260503211714 | 16 | 329 | 0.0 | 0.0 | 0.00 | 0.00 | 0.00 | 93 | 1014.5 |
| 20260503211334 | 16 | 329 | 0.0 | 0.0 | 0.00 | 0.00 | 0.00 | 93 | 1014.5 |
| 20260503210457 | 16 | 329 | 0.0 | 0.0 | 0.00 | 0.00 | 0.00 | 93 | 1014.4 |
| 20260503205724 | 16 | 329 | 0.0 | 0.0 | 0.00 | 0.00 | 0.00 | 93 | 1014.4 |
| 20260503205214 | 16 | 329 | 0.0 | 0.0 | 0.00 | 0.00 | 0.00 | 93 | 1014.3 |
| 20260503204705 | 15 | 329 | 0.0 | 0.0 | 0.00 | 0.00 | 0.00 | 92 | 1014.4 |
| 20260503204412 | 15 | 329 | 0.0 | 0.0 | 0.00 | 0.00 | 0.00 | 92 | 1014.4 |
| 20260503203850 | 15 | 329 | 0.0 | 0.0 | 0.00 | 0.00 | 0.00 | 92 | 1014.3 |
| 20260503203118 | 15 | 329 | 0.0 | 0.0 | 0.00 | 0.00 | 0.00 | 92 | 1014.4 |
| 20260503202551 | 15 | 329 | 0.0 | 0.0 | 0.00 | 0.00 | 0.00 | 92 | 1014.3 |
| 20260503202310 | 15 | 329 | 0.0 | 0.0 | 0.00 | 0.00 | 0.00 | 92 | 1014.2 |
| 20260503201539 | 15 | 329 | 0.0 | 0.0 | 0.00 | 0.00 | 0.00 | 92 | 1014.1 |
| 20260503201039 | 15 | 329 | 0.0 | 0.0 | 0.00 | 0.00 | 0.00 | 92 | 1013.9 |
| 20260503200753 | 15 | 329 | 0.0 | 0.0 | 0.00 | 0.00 | 0.00 | 92 | 1013.8 |
| 20260503200021 | 15 | 329 | 0.0 | 0.0 | 0.00 | 0.00 | 0.00 | 92 | 1013.8 |
| 20260503195517 | 15 | 329 | 0.0 | 0.0 | 0.00 | 0.00 | 0.00 | 92 | 1013.7 |
| 20260503195013 | 15 | 329 | 0.0 | 0.0 | 0.00 | 0.00 | 0.00 | 92 | 1013.7 |
| 20260503194707 | 15 | 329 | 0.0 | 0.0 | 0.00 | 0.00 | 0.00 | 92 | 1013.7 |
| 20260503193937 | 15 | 329 | 0.0 | 0.0 | 0.00 | 0.00 | 0.00 | 92 | 1013.6 |
| 20260503193427 | 15 | 329 | 0.0 | 0.0 | 0.00 | 0.00 | 0.00 | 92 | 1013.4 |
| 20260503192847 | 15 | 329 | 0.0 | 0.0 | 0.00 | 0.00 | 0.00 | 92 | 1013.5 |
| 20260503192338 | 15 | 329 | 0.0 | 0.0 | 0.00 | 0.00 | 0.00 | 92 | 1013.5 |
| 20260503191821 | 15 | 329 | 0.0 | 0.0 | 0.00 | 0.00 | 0.00 | 92 | 1013.5 |
| 20260503191506 | 15 | 329 | 0.0 | 0.0 | 0.00 | 0.00 | 0.00 | 92 | 1013.5 |
| 20260503190737 | 15 | 329 | 0.0 | 0.0 | 0.00 | 0.00 | 0.00 | 92 | 1013.6 |
| 20260503190209 | 15 | 329 | 0.0 | 0.0 | 0.00 | 0.00 | 0.00 | 92 | 1013.6 |
| 20260503185650 | 15 | 329 | 0.0 | 0.0 | 0.00 | 0.00 | 0.00 | 92 | 1013.6 |
| 20260503185143 | 15 | 329 | 0.0 | 0.0 | 0.00 | 0.00 | 0.00 | 92 | 1013.6 |
| 20260503184637 | 15 | 329 | 0.0 | 0.0 | 0.00 | 0.00 | 0.00 | 91 | 1013.6 |
| 20260503184337 | 15 | 329 | 0.0 | 0.0 | 0.00 | 0.00 | 0.00 | 91 | 1013.7 |
| 20260503183606 | 15 | 329 | 0.0 | 0.0 | 0.00 | 0.00 | 0.00 | 91 | 1013.7 |
| 20260503183051 | 15 | 329 | 0.0 | 0.0 | 0.00 | 0.00 | 0.00 | 91 | 1013.7 |
| 20260503182541 | 15 | 329 | 0.0 | 0.0 | 0.00 | 0.00 | 0.00 | 91 | 1013.7 |
| 20260503182036 | 15 | 329 | 0.0 | 0.0 | 0.00 | 0.00 | 0.00 | 91 | 1013.6 |
| 20260503181535 | 15 | 329 | 0.0 | 0.0 | 0.00 | 0.00 | 0.00 | 91 | 1013.6 |
| 20260503181035 | 15 | 329 | 0.0 | 0.0 | 0.00 | 0.00 | 0.00 | 91 | 1013.5 |
| 20260503180519 | 15 | 329 | 0.0 | 0.0 | 0.00 | 0.00 | 0.00 | 91 | 1013.5 |
| 20260503180002 | 15 | 329 | 0.0 | 0.0 | 0.00 | 0.00 | 0.00 | 90 | 1013.5 |
| 20260503175439 | 15 | 329 | 0.0 | 0.0 | 0.00 | 0.00 | 0.00 | 90 | 1013.6 |
| 20260503174941 | 15 | 329 | 0.0 | 0.0 | 0.00 | 0.00 | 0.00 | 90 | 1013.6 |
| 20260503174437 | 15 | 329 | 0.0 | 0.0 | 0.00 | 0.00 | 0.00 | 90 | 1013.6 |
| 20260503174154 | 15 | 329 | 0.0 | 0.0 | 0.00 | 0.00 | 0.00 | 90 | 1013.7 |
| 20260503173640 | 15 | 329 | 0.0 | 0.0 | 0.00 | 0.00 | 0.00 | 90 | 1013.6 |
| 20260503172907 | 15 | 329 | 0.0 | 0.0 | 0.00 | 0.00 | 0.00 | 90 | 1013.6 |
| 20260503172359 | 15 | 329 | 0.0 | 0.0 | 0.00 | 0.00 | 0.00 | 90 | 1013.7 |
| 20260503171815 | 15 | 329 | 0.0 | 0.0 | 0.00 | 0.00 | 0.00 | 90 | 1013.7 |
| 20260503171502 | 15 | 329 | 0.0 | 0.0 | 0.00 | 0.00 | 0.00 | 90 | 1013.7 |
| 20260503170636 | 15 | 329 | 0.0 | 0.0 | 0.00 | 0.00 | 0.00 | 90 | 1013.8 |
| 20260503170136 | 15 | 329 | 0.0 | 0.0 | 0.00 | 0.00 | 0.00 | 90 | 1013.9 |
| 20260503150946 | 16 | 329 | 0.0 | 0.0 | 0.00 | 0.00 | 0.00 | 87 | 1014.6 |
| 20260503150144 | 16 | 329 | 0.0 | 0.0 | 0.00 | 0.00 | 0.00 | 88 | 1014.8 |